Apus — XUCT7 — position and weather

sailwx.info

Track history (hours):
 
Tides and Currents Weather Stations Pressure Air Temp Water Temp Dewpoint Dewpoint Depression Visibility Wind Speed Wind Dir Waves Ship Positions

Apus

Last reported at 2014-Oct-13 15:04 UTC. Time now 2014-Oct-31 22:58 UTC.
Position N 36°12' E 024°07'.
Warning: this ship's position is 18 days out of date.

Length 93 m; draft 6.1 m.

Type: Cargo ship. MMSI: 515102000.

Date/timePositionNaut miles runAvg speedWind from/ knotsBaromVisibWave heightAir tempDewpointWater temp
2014-Oct-13 15:04N 36°12' E 024°07'611.8
2014-Oct-13 14:32N 36°17' E 024°12'1211.7
2014-Oct-13 13:32N 36°25' E 024°23'1111.8
2014-Oct-13 12:34N 36°33' E 024°33'1212.0
2014-Oct-13 11:34N 36°42' E 024°43'1212.3
2014-Oct-13 10:33N 36°54' E 024°48'1212.4
2014-Oct-13 09:34N 37°05' E 024°54'1212.2
2014-Oct-13 08:33N 37°16' E 025°02'1212.0
2014-Oct-13 07:34N 37°26' E 025°10'1212.1
2014-Oct-13 06:34N 37°36' E 025°17'1212.2
2014-Oct-13 05:33N 37°48' E 025°19'1212.3
2014-Oct-13 04:33N 38°01' E 025°21'1312.2
2014-Oct-13 03:31N 38°13' E 025°23'  
2014-Oct-09 02:18N 40°59' E 028°60'4 2.2
2014-Oct-09 00:33N 40°59' E 028°55'0 0.0
2014-Oct-08 23:33N 40°59' E 028°55'0 0.0
2014-Oct-08 22:15N 40°59' E 028°55'0 0.0
2014-Oct-08 21:21N 40°59' E 028°55'0 0.0
2014-Oct-08 20:21N 40°59' E 028°55'0 0.1
2014-Oct-08 19:33N 40°59' E 028°55'0 0.0
2014-Oct-08 18:27N 40°59' E 028°55'0 0.0
2014-Oct-08 15:21N 40°59' E 028°55'0 0.0
2014-Oct-08 13:25N 40°59' E 028°55'0 0.0
2014-Oct-08 12:25N 40°59' E 028°55'0 0.0
2014-Oct-08 11:07N 40°59' E 028°55'0 0.0
2014-Oct-08 10:19N 40°59' E 028°55'0 0.0
2014-Oct-08 09:19N 40°59' E 028°55'0 0.0
2014-Oct-08 08:19N 40°59' E 028°55'0 0.0
2014-Oct-08 07:31N 40°59' E 028°55'0 0.0
2014-Oct-08 06:13N 40°59' E 028°55'  
2014-Oct-03 23:04N 31°50' E 032°04'611.4
2014-Oct-03 22:32N 31°45' E 032°08'1211.3
2014-Oct-03 21:31N 31°36' E 032°16'1111.3
2014-Oct-03 20:33N 31°28' E 032°24'  
Track history (hours):
 
Tides and Currents Weather Stations Pressure Air Temp Water Temp Dewpoint Dewpoint Depression Visibility Wind Speed Wind Dir Waves Ship Positions

Apus

Last reported at 2014-Oct-13 15:04 UTC. Time now 2014-Oct-31 22:58 UTC.
Position N 36°12' E 024°07'.
Warning: this ship's position is 18 days out of date.

Length 93 m; draft 6.1 m.

Type: Cargo ship. MMSI: 515102000.

Date/timePositionNaut miles runAvg speedWind from/ knotsBaromVisibWave heightAir tempDewpointWater temp
2014-Oct-13 15:04N 36°12' E 024°07'611.8
2014-Oct-13 14:32N 36°17' E 024°12'1211.7
2014-Oct-13 13:32N 36°25' E 024°23'1111.8
2014-Oct-13 12:34N 36°33' E 024°33'1212.0
2014-Oct-13 11:34N 36°42' E 024°43'1212.3
2014-Oct-13 10:33N 36°54' E 024°48'1212.4
2014-Oct-13 09:34N 37°05' E 024°54'1212.2
2014-Oct-13 08:33N 37°16' E 025°02'1212.0
2014-Oct-13 07:34N 37°26' E 025°10'1212.1
2014-Oct-13 06:34N 37°36' E 025°17'1212.2
2014-Oct-13 05:33N 37°48' E 025°19'1212.3
2014-Oct-13 04:33N 38°01' E 025°21'1312.2
2014-Oct-13 03:31N 38°13' E 025°23'  
2014-Oct-09 02:18N 40°59' E 028°60'4 2.2
2014-Oct-09 00:33N 40°59' E 028°55'0 0.0
2014-Oct-08 23:33N 40°59' E 028°55'0 0.0
2014-Oct-08 22:15N 40°59' E 028°55'0 0.0
2014-Oct-08 21:21N 40°59' E 028°55'0 0.0
2014-Oct-08 20:21N 40°59' E 028°55'0 0.1
2014-Oct-08 19:33N 40°59' E 028°55'0 0.0
2014-Oct-08 18:27N 40°59' E 028°55'0 0.0
2014-Oct-08 15:21N 40°59' E 028°55'0 0.0
2014-Oct-08 13:25N 40°59' E 028°55'0 0.0
2014-Oct-08 12:25N 40°59' E 028°55'0 0.0
2014-Oct-08 11:07N 40°59' E 028°55'0 0.0
2014-Oct-08 10:19N 40°59' E 028°55'0 0.0
2014-Oct-08 09:19N 40°59' E 028°55'0 0.0
2014-Oct-08 08:19N 40°59' E 028°55'0 0.0
2014-Oct-08 07:31N 40°59' E 028°55'0 0.0
2014-Oct-08 06:13N 40°59' E 028°55'  
2014-Oct-03 23:04N 31°50' E 032°04'611.4
2014-Oct-03 22:32N 31°45' E 032°08'1211.3
2014-Oct-03 21:31N 31°36' E 032°16'1111.3
2014-Oct-03 20:33N 31°28' E 032°24'  

Dump ship's entire track history